createdAt,value
2023-04-17T00:02:29.984Z,100887.19
2023-04-17T00:05:33.766Z,100889.66
2023-04-17T00:08:35.457Z,100888.88
2023-04-17T00:11:37.471Z,100894.31
2023-04-17T00:14:39.298Z,100890.25
2023-04-17T00:17:41.034Z,100895.63
2023-04-17T00:20:44.026Z,100889.72
2023-04-17T00:23:46.078Z,100890.97
2023-04-17T00:26:47.836Z,100889.31
2023-04-17T00:29:49.566Z,100883.22
2023-04-17T00:32:51.294Z,100892.63
2023-04-17T00:35:54.332Z,100882.97
2023-04-17T00:38:56.101Z,100883.47
2023-04-17T00:41:58.489Z,100878.06
2023-04-17T00:45:00.392Z,100879.59
2023-04-17T00:48:04.758Z,100878.06
2023-04-17T00:51:08.237Z,100882.47
2023-04-17T00:54:11.345Z,100873.78
2023-04-17T00:57:13.245Z,100878.50
2023-04-17T01:00:16.986Z,100866.31
2023-04-17T01:03:18.818Z,100871.00
2023-04-17T01:06:22.095Z,100870.50
2023-04-17T01:09:23.744Z,100873.28
2023-04-17T01:12:26.011Z,100867.53
2023-04-17T01:15:28.271Z,100869.22
2023-04-17T01:18:30.255Z,100862.72
2023-04-17T01:21:33.524Z,100865.50
2023-04-17T01:24:37.338Z,100863.88
2023-04-17T01:27:39.073Z,100868.13
2023-04-17T01:30:41.058Z,100868.78
2023-04-17T01:33:43.831Z,100873.44
2023-04-17T01:36:45.643Z,100871.56
2023-04-17T01:39:48.761Z,100874.03
2023-04-17T01:42:50.600Z,100872.41
2023-04-17T01:45:52.299Z,100874.44
2023-04-17T01:48:54.573Z,100875.31
2023-04-17T01:51:56.423Z,100872.47
2023-04-17T01:54:59.486Z,100875.16
2023-04-17T01:58:01.508Z,100872.22
2023-04-17T02:01:03.870Z,100865.59
2023-04-17T02:04:05.766Z,100868.22
2023-04-17T02:07:07.698Z,100877.75
2023-04-17T02:10:11.197Z,100873.84
2023-04-17T02:13:12.970Z,100862.88
2023-04-17T02:16:16.607Z,100872.25
2023-04-17T02:19:18.368Z,100871.63
2023-04-17T02:22:20.058Z,100880.34
2023-04-17T02:25:23.139Z,100870.88
2023-04-17T02:28:28.051Z,100875.59
2023-04-17T02:31:30.045Z,100872.06
2023-04-17T02:34:32.000Z,100867.53
2023-04-17T02:37:33.789Z,100871.66
2023-04-17T02:40:36.849Z,100875.44
2023-04-17T02:43:39.043Z,100871.94
2023-04-17T02:46:40.865Z,100869.63
2023-04-17T02:49:44.151Z,100865.91
2023-04-17T02:52:45.956Z,100874.38
2023-04-17T02:55:49.079Z,100874.25
2023-04-17T02:58:53.451Z,100871.13
2023-04-17T03:01:55.277Z,100875.88
2023-04-17T03:04:57.041Z,100882.81
2023-04-17T03:07:59.793Z,100878.91
2023-04-17T03:11:07.257Z,100879.56
2023-04-17T03:14:09.191Z,100867.00
2023-04-17T03:17:11.920Z,100877.09
2023-04-17T03:20:15.750Z,100874.47
2023-04-17T03:23:17.665Z,100875.69
2023-04-17T03:26:21.575Z,100871.75
2023-04-17T03:29:23.892Z,100874.78
2023-04-17T03:32:25.737Z,100870.16
2023-04-17T03:35:27.488Z,100881.38
2023-04-17T03:38:29.414Z,100877.13
2023-04-17T03:41:32.730Z,100877.41
2023-04-17T03:44:35.104Z,100873.69
2023-04-17T03:47:36.886Z,100878.53
2023-04-17T03:50:38.676Z,100876.16
2023-04-17T03:53:40.451Z,100877.06
2023-04-17T03:56:46.566Z,100876.56
2023-04-17T03:59:48.598Z,100877.28
2023-04-17T04:02:51.805Z,100888.34
2023-04-17T04:05:58.643Z,100886.38
2023-04-17T04:09:00.504Z,100886.31
2023-04-17T04:12:04.263Z,100882.06
2023-04-17T04:15:12.267Z,100883.97
2023-04-17T04:18:14.015Z,100886.50
2023-04-17T04:21:15.933Z,100892.47
2023-04-17T04:24:20.214Z,100892.69
2023-04-17T04:27:23.777Z,100896.78
2023-04-17T04:30:26.662Z,100898.06
2023-04-17T04:33:39.460Z,100900.91
2023-04-17T04:36:49.843Z,100904.03
2023-04-17T04:40:14.858Z,100901.78
2023-04-17T04:43:20.832Z,100911.84
2023-04-17T04:46:27.494Z,100909.53
2023-04-17T04:49:29.551Z,100906.56
2023-04-17T04:52:31.431Z,100903.44
2023-04-17T04:55:37.511Z,100900.81
2023-04-17T04:58:41.025Z,100915.72
2023-04-17T05:01:44.685Z,100912.34
2023-04-17T05:04:47.800Z,100914.69
2023-04-17T05:07:49.767Z,100919.16
2023-04-17T05:10:51.509Z,100918.88
2023-04-17T05:13:54.828Z,100923.88
2023-04-17T05:17:03.214Z,100921.78
2023-04-17T05:20:12.350Z,100922.19
2023-04-17T05:23:22.840Z,100927.13
2023-04-17T05:26:26.280Z,100913.06
2023-04-17T05:29:30.445Z,100920.00
2023-04-17T05:32:34.869Z,100916.63
2023-04-17T05:35:48.060Z,100923.69
2023-04-17T05:38:50.066Z,100924.66
2023-04-17T05:41:51.850Z,100926.34
2023-04-17T05:44:54.955Z,100926.84
2023-04-17T05:47:57.292Z,100936.63
2023-04-17T05:50:59.157Z,100929.00
2023-04-17T05:54:03.112Z,100924.38
2023-04-17T05:57:05.381Z,100934.84
2023-04-17T06:00:13.354Z,100935.00
2023-04-17T06:03:22.239Z,100931.84
2023-04-17T06:06:31.520Z,100939.84
2023-04-17T06:09:33.608Z,100933.66
2023-04-17T06:12:35.522Z,100936.41
2023-04-17T06:15:42.380Z,100937.00
2023-04-17T06:18:44.552Z,100937.44
2023-04-17T06:21:46.396Z,100944.41
2023-04-17T06:24:48.628Z,100946.09
2023-04-17T06:27:50.515Z,100948.47
2023-04-17T06:30:53.817Z,100940.97
2023-04-17T06:33:56.062Z,100943.50
2023-04-17T06:37:01.987Z,100927.06
2023-04-17T06:40:04.930Z,100931.34
2023-04-17T06:43:07.046Z,100927.63
2023-04-17T06:46:14.274Z,100925.38
2023-04-17T06:49:16.056Z,100921.63
2023-04-17T06:52:21.911Z,100928.13
2023-04-17T06:55:23.810Z,100924.28
2023-04-17T06:58:25.468Z,100929.75
2023-04-17T07:01:29.336Z,100928.66
2023-04-17T07:04:31.979Z,100928.03
2023-04-17T07:07:34.559Z,100926.81
2023-04-17T07:10:36.362Z,100932.69
2023-04-17T07:13:38.077Z,100940.25
2023-04-17T07:16:41.200Z,100939.44
2023-04-17T07:19:42.925Z,100934.66
2023-04-17T07:22:44.582Z,100947.53
2023-04-17T07:25:46.485Z,100955.88
2023-04-17T07:28:48.412Z,100963.31
2023-04-17T07:31:51.595Z,100949.56
2023-04-17T07:34:53.419Z,100951.94
2023-04-17T07:37:58.107Z,100953.16
2023-04-17T07:41:00.585Z,100952.72
2023-04-17T07:44:06.522Z,100954.38
2023-04-17T07:47:09.677Z,100953.34
2023-04-17T07:50:11.644Z,100949.47
2023-04-17T07:53:13.358Z,100950.88
2023-04-17T07:56:15.100Z,100957.94
2023-04-17T07:59:16.957Z,100951.97
2023-04-17T08:02:21.250Z,100956.88
2023-04-17T08:05:25.110Z,100951.28
2023-04-17T08:08:27.009Z,100961.03
2023-04-17T08:11:29.046Z,100962.31
2023-04-17T08:14:30.897Z,100965.38
2023-04-17T08:17:34.195Z,100963.69
2023-04-17T08:20:36.050Z,100970.56
2023-04-17T08:23:38.049Z,100979.50
2023-04-17T08:26:39.718Z,100978.53
2023-04-17T08:29:41.908Z,100983.81
2023-04-17T08:32:47.032Z,100968.34
2023-04-17T08:35:48.544Z,100977.66
2023-04-17T08:38:51.773Z,100977.34
2023-04-17T08:42:00.397Z,100986.31
2023-04-17T08:45:05.086Z,100978.56
2023-04-17T08:48:08.201Z,100976.72
2023-04-17T08:51:10.134Z,100987.09
2023-04-17T08:54:11.832Z,100989.56
2023-04-17T08:57:13.749Z,100989.56
2023-04-17T09:00:24.280Z,100985.88
2023-04-17T09:03:40.263Z,100997.28
2023-04-17T09:06:49.066Z,100991.84
2023-04-17T09:09:51.845Z,100998.63
2023-04-17T09:13:01.165Z,100999.81
2023-04-17T09:16:08.216Z,101007.16
2023-04-17T09:19:11.711Z,101004.66
2023-04-17T09:22:21.387Z,101005.59
2023-04-17T09:25:23.819Z,101006.34
2023-04-17T09:28:26.363Z,101008.09
2023-04-17T09:31:30.360Z,101017.25
2023-04-17T09:34:40.594Z,101020.75
2023-04-17T09:37:50.523Z,101018.03
2023-04-17T09:40:52.874Z,101036.53
2023-04-17T09:43:57.133Z,101033.63
2023-04-17T09:47:01.332Z,101028.56
2023-04-17T09:50:06.773Z,101035.72
2023-04-17T09:53:08.642Z,101033.38
2023-04-17T09:56:13.373Z,101039.09
2023-04-17T09:59:16.109Z,101030.31
2023-04-17T10:02:20.625Z,101031.28
2023-04-17T10:05:27.053Z,101034.91
2023-04-17T10:08:29.110Z,101033.75
2023-04-17T10:11:36.240Z,101040.31
2023-04-17T10:14:40.080Z,101039.78
2023-04-17T10:17:42.004Z,101038.94
2023-04-17T10:20:48.497Z,101033.81
2023-04-17T10:23:50.584Z,101032.72
2023-04-17T10:26:52.375Z,101030.91
2023-04-17T10:29:55.389Z,101026.84
2023-04-17T10:33:20.601Z,101022.56
2023-04-17T10:36:52.364Z,101023.72
2023-04-17T10:40:01.149Z,101006.13
2023-04-17T10:43:12.562Z,100998.25
2023-04-17T10:46:14.986Z,100994.81
2023-04-17T10:49:16.719Z,100992.19
2023-04-17T10:52:42.206Z,100985.09
2023-04-17T10:55:49.836Z,100994.69
2023-04-17T10:58:59.627Z,100986.28
2023-04-17T11:02:04.258Z,100988.78
2023-04-17T11:05:07.414Z,100994.53
2023-04-17T11:08:11.878Z,100986.81
2023-04-17T11:11:16.821Z,100984.72
2023-04-17T11:14:21.527Z,100981.31
2023-04-17T11:17:23.480Z,100989.28
2023-04-17T11:20:26.836Z,100985.44
2023-04-17T11:23:34.411Z,100978.25
2023-04-17T11:26:42.363Z,100975.28
2023-04-17T11:29:44.812Z,100970.34
2023-04-17T11:32:46.599Z,100972.94
2023-04-17T11:35:48.429Z,100976.59
2023-04-17T11:38:54.448Z,100967.78
2023-04-17T11:41:57.243Z,100975.91
2023-04-17T11:45:04.666Z,100968.66
2023-04-17T11:48:09.350Z,100980.03
2023-04-17T11:51:11.663Z,100980.78
2023-04-17T11:54:24.975Z,100978.16
2023-04-17T11:57:26.630Z,100978.25
2023-04-17T12:00:30.095Z,100979.72
2023-04-17T12:03:34.487Z,100975.75
2023-04-17T12:06:37.330Z,100974.09
2023-04-17T12:09:40.493Z,100967.56
2023-04-17T12:12:45.063Z,100964.00
2023-04-17T12:15:46.902Z,100969.38
2023-04-17T12:18:48.677Z,100968.16
2023-04-17T12:21:52.442Z,100968.63
2023-04-17T12:24:55.935Z,100969.44
2023-04-17T12:27:59.242Z,100969.09
2023-04-17T12:31:01.116Z,100972.38
2023-04-17T12:34:03.003Z,100967.41
2023-04-17T12:37:04.837Z,100964.22
2023-04-17T12:40:09.281Z,100969.44
2023-04-17T12:43:11.301Z,100966.44
2023-04-17T12:46:13.070Z,100965.28
2023-04-17T12:49:15.640Z,100963.31
2023-04-17T12:52:17.404Z,100964.84
2023-04-17T12:55:20.588Z,100959.25
2023-04-17T12:58:22.274Z,100957.09
2023-04-17T13:01:25.271Z,100956.31
2023-04-17T13:04:27.344Z,100958.78
2023-04-17T13:07:29.150Z,100958.50
2023-04-17T13:10:34.241Z,100947.59
2023-04-17T13:13:35.970Z,100953.97
2023-04-17T13:16:37.908Z,100952.56
2023-04-17T13:19:40.059Z,100946.72
2023-04-17T13:22:41.901Z,100945.97
2023-04-17T13:25:45.370Z,100943.47
2023-04-17T13:28:47.110Z,100944.22
2023-04-17T13:31:49.633Z,100939.00
2023-04-17T13:34:51.542Z,100942.22
2023-04-17T13:37:54.923Z,100933.41
2023-04-17T13:40:58.776Z,100929.16
2023-04-17T13:44:01.008Z,100929.34
2023-04-17T13:47:03.872Z,100931.09
2023-04-17T13:50:07.080Z,100931.94
2023-04-17T13:53:11.005Z,100931.63
2023-04-17T13:56:14.448Z,100934.44
2023-04-17T13:59:16.126Z,100929.69
2023-04-17T14:02:18.064Z,100934.66
2023-04-17T14:05:20.061Z,100923.25
2023-04-17T14:08:21.875Z,100929.75
2023-04-17T14:11:25.129Z,100929.72
2023-04-17T14:14:28.924Z,100922.00
2023-04-17T14:17:30.772Z,100922.78
2023-04-17T14:20:32.597Z,100921.75
2023-04-17T14:23:34.382Z,100923.91
2023-04-17T14:26:38.211Z,100918.06
2023-04-17T14:29:39.932Z,100922.38
2023-04-17T14:32:41.808Z,100918.16
2023-04-17T14:35:43.713Z,100922.78
2023-04-17T14:38:49.861Z,100918.31
2023-04-17T14:41:53.235Z,100915.13
2023-04-17T14:44:55.034Z,100916.28
2023-04-17T14:47:57.792Z,100918.72
2023-04-17T14:51:00.718Z,100919.41
2023-04-17T14:54:02.684Z,100923.50
2023-04-17T14:57:06.285Z,100913.91
2023-04-17T15:00:09.018Z,100913.88
2023-04-17T15:03:10.961Z,100909.44
2023-04-17T15:06:12.896Z,100909.25
2023-04-17T15:09:14.811Z,100911.31
2023-04-17T15:12:18.429Z,100914.16
2023-04-17T15:15:20.142Z,100912.91
2023-04-17T15:18:22.016Z,100916.69
2023-04-17T15:21:23.801Z,100911.47
2023-04-17T15:24:25.700Z,100915.00
2023-04-17T15:27:28.695Z,100900.25
2023-04-17T15:30:30.480Z,100914.28
2023-04-17T15:33:32.525Z,100904.22
2023-04-17T15:36:34.362Z,100903.53
2023-04-17T15:39:37.456Z,100899.66
2023-04-17T15:42:40.506Z,100902.28
2023-04-17T15:45:42.364Z,100898.91
2023-04-17T15:48:45.535Z,100906.06
2023-04-17T15:51:48.495Z,100908.44
2023-04-17T15:54:50.245Z,100902.44
2023-04-17T15:57:53.376Z,100904.94
2023-04-17T16:00:55.167Z,100913.19
2023-04-17T16:03:57.330Z,100912.78
2023-04-17T16:06:59.213Z,100914.22
2023-04-17T16:10:01.109Z,100915.00
2023-04-17T16:13:04.435Z,100903.78
2023-04-17T16:16:06.662Z,100908.97
2023-04-17T16:19:08.745Z,100916.03
2023-04-17T16:22:10.586Z,100909.91
2023-04-17T16:25:12.365Z,100909.44
2023-04-17T16:28:15.675Z,100912.28
2023-04-17T16:31:17.594Z,100899.94
2023-04-17T16:34:20.778Z,100908.34
2023-04-17T16:37:22.726Z,100906.19
2023-04-17T16:40:26.553Z,100908.75
2023-04-17T16:43:32.517Z,100913.19
2023-04-17T16:46:55.082Z,100904.53
2023-04-17T16:49:56.313Z,100908.91
2023-04-17T16:52:58.136Z,100913.56
2023-04-17T16:55:59.844Z,100910.16
2023-04-17T16:59:04.180Z,100909.97
2023-04-17T17:02:05.942Z,100917.78
2023-04-17T17:05:08.591Z,100916.94
2023-04-17T17:08:10.396Z,100920.19
2023-04-17T17:11:12.444Z,100918.06
2023-04-17T17:14:16.151Z,100923.53
2023-04-17T17:17:18.026Z,100917.00
2023-04-17T17:20:20.237Z,100919.84
2023-04-17T17:23:22.013Z,100924.66
2023-04-17T17:26:23.834Z,100932.72
2023-04-17T17:29:26.877Z,100928.53
2023-04-17T17:32:28.686Z,100926.50
2023-04-17T17:35:30.528Z,100927.59
2023-04-17T17:38:32.610Z,100930.22
2023-04-17T17:41:34.532Z,100939.84
2023-04-17T17:44:38.509Z,100937.22
2023-04-17T17:47:40.461Z,100940.63
2023-04-17T17:50:42.771Z,100938.91
2023-04-17T17:53:44.521Z,100946.34
2023-04-17T17:56:46.308Z,100936.47
2023-04-17T17:59:49.453Z,100938.19
2023-04-17T18:02:51.352Z,100940.97
2023-04-17T18:05:53.097Z,100950.06
2023-04-17T18:08:54.912Z,100943.53
2023-04-17T18:11:56.912Z,55916.78
2023-04-17T18:15:00.073Z,55916.78
2023-04-17T18:18:01.768Z,55916.78
2023-04-17T18:21:06.248Z,55916.78
2023-04-17T18:24:08.602Z,55916.78
2023-04-17T18:29:54.870Z,100947.84
2023-04-17T18:32:56.625Z,100952.59
2023-04-17T18:35:58.310Z,100948.53
2023-04-17T18:38:59.998Z,100955.59
2023-04-17T18:42:01.698Z,100947.88
2023-04-17T18:45:05.937Z,100959.19
2023-04-17T18:48:08.768Z,100964.53
2023-04-17T18:51:11.059Z,100962.44
2023-04-17T18:54:13.418Z,100965.97
2023-04-17T18:57:15.386Z,100970.94
2023-04-17T19:00:18.498Z,100980.81
2023-04-17T19:03:20.292Z,100970.31
2023-04-17T19:06:22.208Z,100973.59
2023-04-17T19:09:24.079Z,100970.22
2023-04-17T19:12:26.263Z,100977.22
2023-04-17T19:15:29.605Z,100970.19
2023-04-17T19:18:31.447Z,100965.69
2023-04-17T19:21:33.218Z,100960.13
2023-04-17T19:24:34.988Z,100968.78
2023-04-17T19:27:37.364Z,100964.66
2023-04-17T19:30:40.686Z,100967.47
2023-04-17T19:33:42.469Z,100957.97
2023-04-17T19:36:44.531Z,100970.00
2023-04-17T19:39:46.191Z,100959.16
2023-04-17T19:42:47.850Z,100963.44
2023-04-17T19:45:50.906Z,100965.91
2023-04-17T19:48:52.914Z,100959.72
2023-04-17T19:51:54.622Z,100954.47
2023-04-17T19:54:56.436Z,100956.25
2023-04-17T19:57:58.790Z,100960.25
2023-04-17T20:01:02.373Z,100967.53
2023-04-17T20:04:04.144Z,100959.28
2023-04-17T20:07:05.928Z,100957.84
2023-04-17T20:10:08.402Z,100947.13
2023-04-17T20:13:10.234Z,100953.88
2023-04-17T20:16:13.324Z,100952.78
2023-04-17T20:19:15.792Z,100952.44
2023-04-17T20:22:17.626Z,100947.47
2023-04-17T20:25:19.340Z,100951.72
2023-04-17T20:28:21.201Z,100942.38
2023-04-17T20:31:24.308Z,100944.91
2023-04-17T20:34:26.703Z,100946.09
2023-04-17T20:37:28.740Z,100942.94
2023-04-17T20:40:30.644Z,100941.25
2023-04-17T20:43:32.886Z,100950.31
2023-04-17T20:46:36.033Z,100955.31
2023-04-17T20:49:38.036Z,100949.59
2023-04-17T20:52:40.082Z,100946.06
2023-04-17T20:55:41.787Z,100951.97
2023-04-17T20:58:43.669Z,100951.53
2023-04-17T21:01:46.831Z,100947.56
2023-04-17T21:04:48.944Z,100949.69
2023-04-17T21:07:51.751Z,100945.59
2023-04-17T21:10:53.522Z,100948.47
2023-04-17T21:13:55.324Z,100940.41
2023-04-17T21:16:58.555Z,100944.41
2023-04-17T21:20:00.222Z,100945.59
2023-04-17T21:23:01.908Z,100940.19
2023-04-17T21:26:03.859Z,100939.88
2023-04-17T21:29:05.779Z,100941.94
2023-04-17T21:32:08.856Z,100937.91
2023-04-17T21:35:10.823Z,100942.00
2023-04-17T21:38:12.621Z,100941.53
2023-04-17T21:41:14.469Z,100951.88
2023-04-17T21:44:16.319Z,100951.25
2023-04-17T21:47:19.651Z,100949.13
2023-04-17T21:50:21.324Z,100945.53
2023-04-17T21:53:23.097Z,100939.88
2023-04-17T21:56:25.232Z,100940.28
2023-04-17T21:59:27.030Z,100939.94
2023-04-17T22:02:30.309Z,100938.00
2023-04-17T22:05:32.115Z,100940.94
2023-04-17T22:08:33.935Z,100937.16
2023-04-17T22:11:38.036Z,100946.09
2023-04-17T22:14:40.682Z,100941.53
2023-04-17T22:17:44.596Z,100944.19
2023-04-17T22:20:46.519Z,100933.84
2023-04-17T22:23:48.223Z,100937.91
2023-04-17T22:26:50.027Z,100938.84
2023-04-17T22:29:51.646Z,100936.06
2023-04-17T22:32:56.455Z,100936.81
2023-04-17T22:35:58.132Z,100941.91
2023-04-17T22:38:59.841Z,100938.38
2023-04-17T22:42:01.554Z,100940.81
2023-04-17T22:45:03.607Z,100944.66
2023-04-17T22:48:06.847Z,100936.31
2023-04-17T22:51:09.665Z,100935.97
2023-04-17T22:54:22.144Z,100942.16
2023-04-17T22:57:24.920Z,100933.53
2023-04-17T23:00:26.878Z,100940.97
2023-04-17T23:03:30.111Z,100939.09
2023-04-17T23:06:31.912Z,100934.28
2023-04-17T23:09:33.583Z,100942.97
2023-04-17T23:12:35.267Z,100940.69
2023-04-17T23:15:36.989Z,100948.25
2023-04-17T23:18:39.976Z,100937.06
2023-04-17T23:21:41.694Z,100935.66
2023-04-17T23:24:43.599Z,100934.63
2023-04-17T23:27:45.452Z,100928.13
2023-04-17T23:30:47.285Z,100931.50
2023-04-17T23:33:50.467Z,100930.41
2023-04-17T23:36:52.176Z,100933.25
2023-04-17T23:39:53.866Z,100929.72
2023-04-17T23:42:55.748Z,100927.00
2023-04-17T23:45:58.970Z,100928.16
2023-04-17T23:49:04.952Z,100929.00
2023-04-17T23:52:06.993Z,100933.19
2023-04-17T23:55:09.032Z,100929.41
2023-04-17T23:58:10.739Z,100922.09
